Terminal Aerodrome Forecast
Issued by NWS Billings, MT

Home | Current Version | Previous Version | Text Only | Print | Product List | Glossary On
Versions: 1 2 3 4 5 6 7 8 9 10 11 12 13 14 15 16 17
000
FTUS45 KBYZ 261120
TAFBIL
TAF
KBIL 261120Z 2612/2712 24012KT P6SM VCSH SCT060 BKN100
     FM261400 29011KT P6SM SCT080 BKN110
     FM261700 29012KT P6SM VCTS SCT050CB BKN110
     FM270300 VRB05KT P6SM VCSH SCT060 BKN100=

USA.gov is the U.S. government's official web portal to all federal, state and local government web resources and services.